createdAt,value
2023-04-27T00:01:34.836Z,7.20
2023-04-27T00:04:01.776Z,10.43
2023-04-27T00:06:28.399Z,10.17
2023-04-27T00:08:54.883Z,10.13
2023-04-27T00:11:21.499Z,12.63
2023-04-27T00:13:48.472Z,13.83
2023-04-27T00:16:14.869Z,9.17
2023-04-27T00:18:42.362Z,10.53
2023-04-27T00:21:09.362Z,12.17
2023-04-27T00:23:36.352Z,8.70
2023-04-27T00:26:02.932Z,10.20
2023-04-27T00:28:29.303Z,19.60
2023-04-27T00:30:55.842Z,9.30
2023-04-27T00:33:22.207Z,10.83
2023-04-27T00:35:48.552Z,14.43
2023-04-27T00:38:15.069Z,13.53
2023-04-27T00:40:41.392Z,8.53
2023-04-27T00:43:07.746Z,11.57
2023-04-27T00:45:42.589Z,11.80
2023-04-27T00:48:10.442Z,11.63
2023-04-27T00:50:38.636Z,13.80
2023-04-27T00:53:07.091Z,11.27
2023-04-27T00:55:33.544Z,9.17
2023-04-27T00:57:59.939Z,12.03
2023-04-27T01:00:26.343Z,12.80
2023-04-27T01:02:53.213Z,12.30
2023-04-27T01:05:20.025Z,8.80
2023-04-27T01:07:46.351Z,11.83
2023-04-27T01:10:12.698Z,11.53
2023-04-27T01:12:39.076Z,16.57
2023-04-27T01:15:07.034Z,13.67
2023-04-27T01:17:33.492Z,19.63
2023-04-27T01:20:00.219Z,9.17
2023-04-27T01:22:26.939Z,12.30
2023-04-27T01:24:53.792Z,12.23
2023-04-27T01:27:20.220Z,16.63
2023-04-27T01:29:46.632Z,14.27
2023-04-27T01:32:13.008Z,10.43
2023-04-27T01:34:39.428Z,18.87
2023-04-27T01:37:06.017Z,10.53
2023-04-27T01:39:32.595Z,17.07
2023-04-27T01:41:58.998Z,15.80
2023-04-27T01:44:25.332Z,17.13
2023-04-27T01:46:51.867Z,14.13
2023-04-27T01:49:18.224Z,11.10
2023-04-27T01:51:44.545Z,15.03
2023-04-27T01:54:10.919Z,12.90
2023-04-27T01:56:37.269Z,12.63
2023-04-27T01:59:03.617Z,10.40
2023-04-27T02:01:31.343Z,13.50
2023-04-27T02:03:58.026Z,10.50
2023-04-27T02:06:24.514Z,12.50
2023-04-27T02:08:51.502Z,13.60
2023-04-27T02:11:17.838Z,16.37
2023-04-27T02:13:44.164Z,11.37
2023-04-27T02:16:10.678Z,10.07
2023-04-27T02:18:38.645Z,12.00
2023-04-27T02:21:09.813Z,13.43
2023-04-27T02:23:36.671Z,10.37
2023-04-27T02:26:03.080Z,11.23
2023-04-27T02:28:29.486Z,9.87
2023-04-27T02:30:56.424Z,13.50
2023-04-27T02:33:22.806Z,14.10
2023-04-27T02:35:49.169Z,10.50
2023-04-27T02:38:15.758Z,11.30
2023-04-27T02:40:42.129Z,12.43
2023-04-27T02:43:08.487Z,15.27
2023-04-27T02:45:38.334Z,16.40
2023-04-27T02:48:04.849Z,12.87
2023-04-27T02:50:31.294Z,10.90
2023-04-27T02:52:57.617Z,10.70
2023-04-27T02:55:23.996Z,13.17
2023-04-27T02:57:50.494Z,9.93
2023-04-27T03:00:17.022Z,12.30
2023-04-27T03:02:43.668Z,14.07
2023-04-27T03:05:10.933Z,11.10
2023-04-27T03:07:37.327Z,10.73
2023-04-27T03:10:03.918Z,12.70
2023-04-27T03:12:30.314Z,15.27
2023-04-27T03:14:56.642Z,13.30
2023-04-27T03:17:23.017Z,15.40
2023-04-27T03:19:49.341Z,14.63
2023-04-27T03:22:15.837Z,12.17
2023-04-27T03:24:42.849Z,17.83
2023-04-27T03:27:09.454Z,12.40
2023-04-27T03:29:35.815Z,14.53
2023-04-27T03:32:04.028Z,12.33
2023-04-27T03:34:31.655Z,19.97
2023-04-27T03:36:58.242Z,20.40
2023-04-27T03:39:24.692Z,13.83
2023-04-27T03:41:51.039Z,16.43
2023-04-27T03:44:17.386Z,12.83
2023-04-27T03:46:43.755Z,14.97
2023-04-27T03:49:10.442Z,13.60
2023-04-27T03:51:38.304Z,13.73
2023-04-27T03:54:04.658Z,12.90
2023-04-27T03:56:31.018Z,13.00
2023-04-27T03:58:57.357Z,11.80
2023-04-27T04:01:24.819Z,16.17
2023-04-27T04:03:51.742Z,10.50
2023-04-27T04:06:18.249Z,12.20
2023-04-27T04:08:44.596Z,12.00
2023-04-27T04:11:10.948Z,9.87
2023-04-27T04:13:37.287Z,14.60
2023-04-27T04:16:05.496Z,14.60
2023-04-27T04:18:32.512Z,14.83
2023-04-27T04:20:59.006Z,12.37
2023-04-27T04:23:25.914Z,11.20
2023-04-27T04:25:52.344Z,15.93
2023-04-27T04:28:18.688Z,12.30
2023-04-27T04:30:45.609Z,15.47
2023-04-27T04:33:12.102Z,18.20
2023-04-27T04:35:39.199Z,13.00
2023-04-27T04:38:05.936Z,11.00
2023-04-27T04:40:32.339Z,20.33
2023-04-27T04:42:58.666Z,21.27
2023-04-27T04:45:25.223Z,12.03
2023-04-27T04:47:51.953Z,12.60
2023-04-27T04:50:18.497Z,11.83
2023-04-27T04:52:44.888Z,11.30
2023-04-27T04:55:11.678Z,11.90
2023-04-27T04:57:38.007Z,12.73
2023-04-27T05:00:06.636Z,17.53
2023-04-27T05:02:33.085Z,18.37
2023-04-27T05:04:59.621Z,15.20
2023-04-27T05:07:26.743Z,16.33
2023-04-27T05:09:53.136Z,12.10
2023-04-27T05:12:19.490Z,13.00
2023-04-27T05:14:45.887Z,12.53
2023-04-27T05:17:12.491Z,12.60
2023-04-27T05:19:38.882Z,12.00
2023-04-27T05:22:05.280Z,10.43
2023-04-27T05:24:31.624Z,11.07
2023-04-27T05:26:58.889Z,18.90
2023-04-27T05:29:27.304Z,10.70
2023-04-27T05:31:53.861Z,10.50
2023-04-27T05:34:20.331Z,10.97
2023-04-27T05:36:49.536Z,20.53
2023-04-27T05:39:16.139Z,18.77
2023-04-27T05:41:42.810Z,10.03
2023-04-27T05:44:09.154Z,11.40
2023-04-27T05:46:37.872Z,10.00
2023-04-27T05:49:04.950Z,17.50
2023-04-27T05:51:33.205Z,11.10
2023-04-27T05:54:01.705Z,12.13
2023-04-27T05:56:28.092Z,12.60
2023-04-27T05:58:54.438Z,11.87
2023-04-27T06:01:21.566Z,10.63
2023-04-27T06:03:48.056Z,13.63
2023-04-27T06:06:14.480Z,12.00
2023-04-27T06:08:41.194Z,12.63
2023-04-27T06:11:07.644Z,12.60
2023-04-27T06:13:34.075Z,9.10
2023-04-27T06:16:01.269Z,12.10
2023-04-27T06:18:27.815Z,10.97
2023-04-27T06:20:59.271Z,13.00
2023-04-27T06:23:25.622Z,11.30
2023-04-27T06:25:52.098Z,10.93
2023-04-27T06:30:45.062Z,13.87
2023-04-27T06:33:11.518Z,12.90
2023-04-27T06:35:37.945Z,9.23
2023-04-27T06:38:05.993Z,9.87
2023-04-27T06:40:34.005Z,12.43
2023-04-27T06:43:00.391Z,12.00
2023-04-27T06:45:26.715Z,11.07
2023-04-27T06:47:53.088Z,15.30
2023-04-27T06:50:19.429Z,13.30
2023-04-27T06:52:45.879Z,11.07
2023-04-27T06:55:12.254Z,15.03
2023-04-27T06:57:38.642Z,17.17
2023-04-27T07:00:05.566Z,17.13
2023-04-27T07:02:31.991Z,13.60
2023-04-27T07:04:58.463Z,16.80
2023-04-27T07:07:24.924Z,12.47
2023-04-27T07:09:51.732Z,18.97
2023-04-27T07:12:18.094Z,14.50
2023-04-27T07:14:44.510Z,13.77
2023-04-27T07:17:11.091Z,17.90
2023-04-27T07:19:37.540Z,18.47
2023-04-27T07:22:03.997Z,16.97
2023-04-27T07:24:30.320Z,16.67
2023-04-27T07:26:59.302Z,15.87
2023-04-27T07:29:28.047Z,16.40
2023-04-27T07:31:55.586Z,19.90
2023-04-27T07:34:22.609Z,14.10
2023-04-27T07:36:48.991Z,19.80
2023-04-27T07:39:15.676Z,19.80
2023-04-27T07:41:42.303Z,12.90
2023-04-27T07:44:09.158Z,16.10
2023-04-27T07:46:35.588Z,11.30
2023-04-27T07:49:02.299Z,15.83
2023-04-27T07:51:28.915Z,14.63
2023-04-27T07:53:55.556Z,13.03
2023-04-27T07:56:22.001Z,12.60
2023-04-27T07:58:48.340Z,13.93
2023-04-27T08:01:14.660Z,10.40
2023-04-27T08:03:41.358Z,14.63
2023-04-27T08:06:08.796Z,14.50
2023-04-27T08:08:35.592Z,11.90
2023-04-27T08:11:01.952Z,11.27
2023-04-27T08:13:28.324Z,15.07
2023-04-27T08:15:58.409Z,14.33
2023-04-27T08:18:27.067Z,14.80
2023-04-27T08:20:53.982Z,11.67
2023-04-27T08:23:20.490Z,18.90
2023-04-27T08:25:47.473Z,12.00
2023-04-27T08:28:15.110Z,11.40
2023-04-27T08:30:42.692Z,11.70
2023-04-27T08:33:09.072Z,17.30
2023-04-27T08:35:35.499Z,14.60
2023-04-27T08:38:02.170Z,12.30
2023-04-27T08:40:28.573Z,14.60
2023-04-27T08:42:56.966Z,12.93
2023-04-27T08:45:27.419Z,12.33
2023-04-27T08:47:54.400Z,15.00
2023-04-27T08:50:21.235Z,18.37
2023-04-27T08:52:48.568Z,10.47
2023-04-27T08:55:16.634Z,15.80
2023-04-27T08:57:53.977Z,17.07
2023-04-27T09:00:20.901Z,14.93
2023-04-27T09:02:48.402Z,15.67
2023-04-27T09:05:19.164Z,11.50
2023-04-27T09:08:07.794Z,11.30
2023-04-27T09:10:45.897Z,11.13
2023-04-27T09:13:12.239Z,22.20
2023-04-27T09:15:42.831Z,12.60
2023-04-27T09:18:16.229Z,10.13
2023-04-27T09:20:53.110Z,8.57
2023-04-27T09:23:29.395Z,9.63
2023-04-27T09:25:56.702Z,11.77
2023-04-27T09:28:24.887Z,10.67
2023-04-27T09:31:01.850Z,6.97
2023-04-27T09:33:29.869Z,11.23
2023-04-27T09:35:58.124Z,8.10
2023-04-27T09:38:24.529Z,7.17
2023-04-27T09:40:52.582Z,9.80
2023-04-27T09:43:19.313Z,9.23
2023-04-27T09:45:46.179Z,10.30
2023-04-27T09:48:13.648Z,7.00
2023-04-27T09:50:42.401Z,10.53
2023-04-27T09:53:14.467Z,9.20
2023-04-27T09:56:03.869Z,8.50
2023-04-27T09:58:53.217Z,13.30
2023-04-27T10:01:43.773Z,7.30
2023-04-27T10:04:30.304Z,11.20
2023-04-27T10:07:05.379Z,16.10
2023-04-27T10:09:42.032Z,15.20
2023-04-27T10:12:27.612Z,12.67
2023-04-27T10:14:55.997Z,10.57
2023-04-27T10:17:33.677Z,8.10
2023-04-27T10:20:03.200Z,8.50
2023-04-27T10:22:44.006Z,8.70
2023-04-27T10:25:16.986Z,9.83
2023-04-27T10:27:43.413Z,8.70
2023-04-27T10:30:11.687Z,8.53
2023-04-27T10:32:38.260Z,7.33
2023-04-27T10:35:07.436Z,7.20
2023-04-27T10:37:41.978Z,11.10
2023-04-27T10:40:10.550Z,7.77
2023-04-27T10:42:36.908Z,5.20
2023-04-27T10:45:03.468Z,5.13
2023-04-27T10:47:38.487Z,6.10
2023-04-27T10:50:06.575Z,5.63
2023-04-27T10:52:33.250Z,13.30
2023-04-27T10:55:12.508Z,5.80
2023-04-27T10:57:47.047Z,4.97
2023-04-27T11:00:16.357Z,5.03
2023-04-27T11:02:42.958Z,4.23
2023-04-27T11:05:18.229Z,2.87
2023-04-27T11:07:44.569Z,4.10
2023-04-27T11:10:16.053Z,3.70
2023-04-27T11:12:42.470Z,4.73
2023-04-27T11:15:09.466Z,3.53
2023-04-27T11:17:35.914Z,5.40
2023-04-27T11:20:03.652Z,5.53
2023-04-27T11:22:29.965Z,3.80
2023-04-27T11:24:56.382Z,5.60
2023-04-27T11:27:23.996Z,4.20
2023-04-27T11:29:50.338Z,4.00
2023-04-27T11:32:23.579Z,3.77
2023-04-27T11:34:53.477Z,6.33
2023-04-27T11:37:26.428Z,5.03
2023-04-27T11:39:57.373Z,5.40
2023-04-27T11:42:28.440Z,4.50
2023-04-27T11:45:13.414Z,4.10
2023-04-27T11:47:42.391Z,5.97
2023-04-27T11:50:09.672Z,4.90
2023-04-27T11:52:37.893Z,4.23
2023-04-27T11:55:05.108Z,4.47
2023-04-27T11:57:33.724Z,5.13
2023-04-27T12:00:02.329Z,4.20
2023-04-27T12:02:29.622Z,6.90
2023-04-27T12:04:56.464Z,7.20
2023-04-27T12:07:23.148Z,3.27
2023-04-27T12:09:49.938Z,4.23
2023-04-27T12:12:21.724Z,5.80
2023-04-27T12:14:49.093Z,4.30
2023-04-27T12:17:15.414Z,4.30
2023-04-27T12:19:42.220Z,6.13
2023-04-27T12:22:09.538Z,5.97
2023-04-27T12:24:36.983Z,5.00
2023-04-27T12:27:04.522Z,4.30
2023-04-27T12:29:33.810Z,4.43
2023-04-27T12:32:00.256Z,4.73
2023-04-27T12:34:28.156Z,2.53
2023-04-27T12:36:54.510Z,5.10
2023-04-27T12:39:24.740Z,4.13
2023-04-27T12:41:51.663Z,3.23
2023-04-27T12:44:19.553Z,5.40
2023-04-27T12:46:48.410Z,4.80
2023-04-27T12:49:15.663Z,6.03
2023-04-27T12:51:42.774Z,5.10
2023-04-27T12:54:10.882Z,4.10
2023-04-27T12:56:37.323Z,5.07
2023-04-27T12:59:04.218Z,4.10
2023-04-27T13:01:31.461Z,3.30
2023-04-27T13:04:03.591Z,6.43
2023-04-27T13:06:31.780Z,5.53
2023-04-27T13:09:01.240Z,4.13
2023-04-27T13:11:27.762Z,5.10
2023-04-27T13:13:55.029Z,4.63
2023-04-27T13:16:24.581Z,5.37
2023-04-27T13:18:52.477Z,8.60
2023-04-27T13:21:19.483Z,6.27
2023-04-27T13:23:46.837Z,7.07
2023-04-27T13:26:14.076Z,3.90
2023-04-27T13:28:40.604Z,3.90
2023-04-27T13:31:07.035Z,6.00
2023-04-27T13:33:41.986Z,3.67
2023-04-27T13:36:10.296Z,5.73
2023-04-27T13:38:37.044Z,3.40
2023-04-27T13:41:04.095Z,3.87
2023-04-27T13:43:31.150Z,4.00
2023-04-27T13:46:00.759Z,5.37
2023-04-27T13:48:27.647Z,4.60
2023-04-27T13:50:57.360Z,10.20
2023-04-27T13:53:27.385Z,3.80
2023-04-27T13:55:55.018Z,6.20
2023-04-27T13:58:22.762Z,8.53
2023-04-27T14:00:52.725Z,2.67
2023-04-27T14:03:19.429Z,5.50
2023-04-27T14:05:48.224Z,3.03
2023-04-27T14:08:14.596Z,3.63
2023-04-27T14:10:41.644Z,3.03
2023-04-27T14:13:07.993Z,3.30
2023-04-27T14:15:37.109Z,3.13
2023-04-27T14:18:05.418Z,3.23
2023-04-27T14:20:31.968Z,4.30
2023-04-27T14:22:59.166Z,3.60
2023-04-27T14:25:25.609Z,6.93
2023-04-27T14:27:51.920Z,7.23
2023-04-27T14:30:18.301Z,3.33
2023-04-27T14:32:45.065Z,4.27
2023-04-27T14:35:11.785Z,3.40
2023-04-27T14:37:38.414Z,4.20
2023-04-27T14:40:06.807Z,4.57
2023-04-27T14:42:33.193Z,3.57
2023-04-27T14:44:59.589Z,3.23
2023-04-27T14:47:26.130Z,3.77
2023-04-27T14:49:52.574Z,2.27
2023-04-27T14:52:18.963Z,4.10
2023-04-27T14:54:45.293Z,5.40
2023-04-27T14:57:11.637Z,2.50
2023-04-27T14:59:38.307Z,5.10
2023-04-27T15:02:04.811Z,10.33
2023-04-27T15:04:31.292Z,5.73
2023-04-27T15:06:57.782Z,8.90
2023-04-27T15:09:24.123Z,4.03
2023-04-27T15:11:50.452Z,2.10
2023-04-27T15:14:16.831Z,6.23
2023-04-27T15:16:43.145Z,3.27
2023-04-27T15:19:09.475Z,3.87
2023-04-27T15:21:35.963Z,7.50
2023-04-27T15:24:02.274Z,5.50
2023-04-27T15:26:28.631Z,4.03
2023-04-27T15:28:55.038Z,3.90
2023-04-27T15:31:22.033Z,6.80
2023-04-27T15:33:48.419Z,2.30
2023-04-27T15:36:15.311Z,4.57
2023-04-27T15:38:41.641Z,7.37
2023-04-27T15:41:07.990Z,6.67
2023-04-27T15:43:34.319Z,7.53
2023-04-27T15:46:04.083Z,5.10
2023-04-27T15:48:30.525Z,4.10
2023-04-27T15:50:56.872Z,2.40
2023-04-27T15:53:23.212Z,3.37
2023-04-27T15:55:49.623Z,4.40
2023-04-27T15:58:16.273Z,3.93
2023-04-27T16:00:42.646Z,3.23
2023-04-27T16:03:11.384Z,2.20
2023-04-27T16:05:38.010Z,5.40
2023-04-27T16:08:04.458Z,2.53
2023-04-27T16:10:30.903Z,4.53
2023-04-27T16:12:57.283Z,4.17
2023-04-27T16:15:23.626Z,2.60
2023-04-27T16:17:49.967Z,4.47
2023-04-27T16:20:16.306Z,2.83
2023-04-27T16:22:42.641Z,3.50
2023-04-27T16:25:12.089Z,9.40
2023-04-27T16:27:39.331Z,3.70
2023-04-27T16:30:07.292Z,5.70
2023-04-27T16:32:35.608Z,1.90
2023-04-27T16:35:02.990Z,3.63
2023-04-27T16:37:29.559Z,5.20
2023-04-27T16:39:59.081Z,6.43
2023-04-27T16:42:25.634Z,3.90
2023-04-27T16:44:52.044Z,3.70
2023-04-27T16:47:18.436Z,3.70
2023-04-27T16:49:44.763Z,2.40
2023-04-27T16:52:11.797Z,2.70
2023-04-27T16:54:38.142Z,2.97
2023-04-27T16:57:04.491Z,3.00
2023-04-27T16:59:30.964Z,2.73
2023-04-27T17:02:00.018Z,4.03
2023-04-27T17:04:35.139Z,6.50
2023-04-27T17:07:01.543Z,4.10
2023-04-27T17:09:27.949Z,4.67
2023-04-27T17:11:54.274Z,5.90
2023-04-27T17:14:22.374Z,8.33
2023-04-27T17:16:50.693Z,4.77
2023-04-27T17:19:17.029Z,5.70
2023-04-27T17:21:43.392Z,5.00
2023-04-27T17:24:10.334Z,2.37
2023-04-27T17:26:37.128Z,3.20
2023-04-27T17:29:03.482Z,2.97
2023-04-27T17:31:29.812Z,3.77
2023-04-27T17:33:56.132Z,2.90
2023-04-27T17:36:22.480Z,4.13
2023-04-27T17:38:48.865Z,4.90
2023-04-27T17:41:15.263Z,6.20
2023-04-27T17:43:41.877Z,5.10
2023-04-27T17:46:11.361Z,3.47
2023-04-27T17:48:37.920Z,3.83
2023-04-27T17:51:04.348Z,2.97
2023-04-27T17:53:30.768Z,5.03
2023-04-27T17:55:57.259Z,7.37
2023-04-27T17:58:23.592Z,3.40
2023-04-27T18:00:49.969Z,2.90
2023-04-27T18:03:16.591Z,4.53
2023-04-27T18:05:43.025Z,2.50
2023-04-27T18:08:09.503Z,4.87
2023-04-27T18:10:36.218Z,4.70
2023-04-27T18:13:02.953Z,7.70
2023-04-27T18:15:29.352Z,4.70
2023-04-27T18:17:56.068Z,4.73
2023-04-27T18:20:23.424Z,5.53
2023-04-27T18:22:49.902Z,3.73
2023-04-27T18:25:16.222Z,7.13
2023-04-27T18:27:43.864Z,9.37
2023-04-27T18:30:10.510Z,4.50
2023-04-27T18:32:37.052Z,7.70
2023-04-27T18:35:04.001Z,6.50
2023-04-27T18:37:30.639Z,6.23
2023-04-27T18:39:56.957Z,5.17
2023-04-27T18:42:23.748Z,4.43
2023-04-27T18:44:54.579Z,6.53
2023-04-27T18:47:20.968Z,8.23
2023-04-27T18:49:47.350Z,6.70
2023-04-27T18:52:13.680Z,6.00
2023-04-27T18:54:40.062Z,8.20
2023-04-27T18:57:06.706Z,6.57
2023-04-27T18:59:33.049Z,6.30
2023-04-27T19:01:59.590Z,6.60
2023-04-27T19:04:26.550Z,11.70
2023-04-27T19:06:53.020Z,8.30
2023-04-27T19:09:19.370Z,6.90
2023-04-27T19:11:49.349Z,6.10
2023-04-27T19:14:19.709Z,7.10
2023-04-27T19:16:46.279Z,9.50
2023-04-27T19:19:13.039Z,6.30
2023-04-27T19:21:41.746Z,4.93
2023-04-27T19:24:08.240Z,4.53
2023-04-27T19:26:34.675Z,6.20
2023-04-27T19:29:01.208Z,5.93
2023-04-27T19:31:28.106Z,4.60
2023-04-27T19:33:55.536Z,5.30
2023-04-27T19:36:22.886Z,5.53
2023-04-27T19:38:49.238Z,4.67
2023-04-27T19:41:15.621Z,6.60
2023-04-27T19:43:42.073Z,7.20
2023-04-27T19:46:08.472Z,6.27
2023-04-27T19:48:34.921Z,7.23
2023-04-27T19:51:01.370Z,6.43
2023-04-27T19:53:27.741Z,6.57
2023-04-27T19:55:54.618Z,6.10
2023-04-27T19:58:21.427Z,4.80
2023-04-27T20:00:47.788Z,6.90
2023-04-27T20:03:14.247Z,5.63
2023-04-27T20:05:42.434Z,10.80
2023-04-27T20:08:09.051Z,3.80
2023-04-27T20:10:35.499Z,8.83
2023-04-27T20:13:01.901Z,7.97
2023-04-27T20:15:28.276Z,5.43
2023-04-27T20:17:54.658Z,11.13
2023-04-27T20:20:21.178Z,5.40
2023-04-27T20:22:47.651Z,7.03
2023-04-27T20:25:14.733Z,4.87
2023-04-27T20:27:41.397Z,7.50
2023-04-27T20:30:08.542Z,12.23
2023-04-27T20:32:34.965Z,11.33
2023-04-27T20:35:02.468Z,8.33
2023-04-27T20:37:28.911Z,10.90
2023-04-27T20:39:55.717Z,6.47
2023-04-27T20:42:22.425Z,7.80
2023-04-27T20:44:48.760Z,9.07
2023-04-27T20:47:15.178Z,4.70
2023-04-27T20:49:42.234Z,6.83
2023-04-27T20:52:08.774Z,8.90
2023-04-27T20:54:36.083Z,9.20
2023-04-27T20:57:03.576Z,7.43
2023-04-27T20:59:30.037Z,9.93
2023-04-27T21:01:56.435Z,5.63
2023-04-27T21:04:22.940Z,11.83
2023-04-27T21:06:49.432Z,12.00
2023-04-27T21:09:15.762Z,8.87
2023-04-27T21:11:42.133Z,8.70
2023-04-27T21:14:08.465Z,7.17
2023-04-27T21:16:34.829Z,7.20
2023-04-27T21:19:01.242Z,6.50
2023-04-27T21:21:27.618Z,7.50
2023-04-27T21:24:04.098Z,6.37
2023-04-27T21:26:33.492Z,8.13
2023-04-27T21:28:59.820Z,9.27
2023-04-27T21:31:26.183Z,8.77
2023-04-27T21:33:52.898Z,8.23
2023-04-27T21:36:19.734Z,7.20
2023-04-27T21:38:47.049Z,5.57
2023-04-27T21:41:13.438Z,10.60
2023-04-27T21:43:41.859Z,5.07
2023-04-27T21:46:09.108Z,4.43
2023-04-27T21:48:35.696Z,5.43
2023-04-27T21:51:02.196Z,4.47
2023-04-27T21:53:31.403Z,5.40
2023-04-27T21:55:58.147Z,6.17
2023-04-27T21:58:24.841Z,4.13
2023-04-27T22:00:51.618Z,7.13
2023-04-27T22:03:18.159Z,7.20
2023-04-27T22:05:45.269Z,6.33
2023-04-27T22:08:12.030Z,6.80
2023-04-27T22:10:38.417Z,11.90
2023-04-27T22:13:17.719Z,8.30
2023-04-27T22:15:45.730Z,5.90
2023-04-27T22:18:12.145Z,6.03
2023-04-27T22:20:38.569Z,10.40
2023-04-27T22:23:04.934Z,4.83
2023-04-27T22:25:32.872Z,6.93
2023-04-27T22:27:59.652Z,4.90
2023-04-27T22:30:25.990Z,4.33
2023-04-27T22:32:52.442Z,7.83
2023-04-27T22:35:26.380Z,8.40
2023-04-27T22:37:57.579Z,6.03
2023-04-27T22:40:24.323Z,8.37
2023-04-27T22:42:51.394Z,16.43
2023-04-27T22:45:17.883Z,9.90
2023-04-27T22:47:45.616Z,10.23
2023-04-27T22:50:12.698Z,9.53
2023-04-27T22:52:42.003Z,5.80
2023-04-27T22:55:09.609Z,5.90
2023-04-27T22:57:36.049Z,4.90
2023-04-27T23:00:05.030Z,9.23
2023-04-27T23:02:31.928Z,6.40
2023-04-27T23:04:58.798Z,5.33
2023-04-27T23:07:25.181Z,5.80
2023-04-27T23:09:51.508Z,4.17
2023-04-27T23:12:17.862Z,7.67
2023-04-27T23:14:44.237Z,7.10
2023-04-27T23:17:10.597Z,6.80
2023-04-27T23:19:36.974Z,4.27
2023-04-27T23:22:03.360Z,5.57
2023-04-27T23:24:29.765Z,7.60
2023-04-27T23:26:56.301Z,12.50
2023-04-27T23:29:23.302Z,6.50
2023-04-27T23:31:49.639Z,8.67
2023-04-27T23:34:16.453Z,5.73
2023-04-27T23:36:42.975Z,6.07
2023-04-27T23:39:09.320Z,4.80
2023-04-27T23:41:35.639Z,10.13
2023-04-27T23:44:02.656Z,5.03
2023-04-27T23:46:29.105Z,4.53
2023-04-27T23:48:55.495Z,6.23
2023-04-27T23:51:21.836Z,7.43
2023-04-27T23:53:48.278Z,8.23
2023-04-27T23:56:21.105Z,6.40
2023-04-27T23:58:47.435Z,7.50
